sensor_id;sensor_type;location;lat;lon;timestamp;P1;durP1;ratioP1;P2;durP2;ratioP2
23163;SDS011;31429;42.674;23.350;2023-12-28T00:00:13;53.60;;;39.03;;
23163;SDS011;31429;42.674;23.350;2023-12-28T00:01:15;54.30;;;37.67;;
23163;SDS011;31429;42.674;23.350;2023-12-28T00:02:17;51.65;;;37.95;;
23163;SDS011;31429;42.674;23.350;2023-12-28T00:03:39;52.33;;;37.65;;
23163;SDS011;31429;42.674;23.350;2023-12-28T00:05:01;51.75;;;36.80;;
23163;SDS011;31429;42.674;23.350;2023-12-28T00:06:02;53.08;;;40.50;;
23163;SDS011;31429;42.674;23.350;2023-12-28T00:07:07;52.22;;;37.85;;
23163;SDS011;31429;42.674;23.350;2023-12-28T00:08:08;57.95;;;40.03;;
23163;SDS011;31429;42.674;23.350;2023-12-28T00:09:18;52.53;;;38.33;;
23163;SDS011;31429;42.674;23.350;2023-12-28T00:10:31;52.67;;;38.53;;
23163;SDS011;31429;42.674;23.350;2023-12-28T00:11:34;50.78;;;37.22;;
23163;SDS011;31429;42.674;23.350;2023-12-28T00:12:36;57.40;;;40.97;;
23163;SDS011;31429;42.674;23.350;2023-12-28T00:13:44;60.33;;;40.90;;
23163;SDS011;31429;42.674;23.350;2023-12-28T00:15:15;56.38;;;40.58;;
23163;SDS011;31429;42.674;23.350;2023-12-28T00:16:23;52.80;;;36.10;;
23163;SDS011;31429;42.674;23.350;2023-12-28T00:17:45;52.63;;;36.88;;
23163;SDS011;31429;42.674;23.350;2023-12-28T00:18:46;56.53;;;39.25;;
23163;SDS011;31429;42.674;23.350;2023-12-28T00:19:48;48.83;;;35.90;;
23163;SDS011;31429;42.674;23.350;2023-12-28T00:21:18;53.95;;;38.03;;
23163;SDS011;31429;42.674;23.350;2023-12-28T00:22:23;50.58;;;36.72;;
23163;SDS011;31429;42.674;23.350;2023-12-28T00:25:26;51.38;;;34.70;;
23163;SDS011;31429;42.674;23.350;2023-12-28T00:26:32;49.83;;;34.67;;
23163;SDS011;31429;42.674;23.350;2023-12-28T00:27:33;50.63;;;33.70;;
23163;SDS011;31429;42.674;23.350;2023-12-28T00:28:54;42.25;;;32.10;;
23163;SDS011;31429;42.674;23.350;2023-12-28T00:29:55;42.20;;;31.10;;
23163;SDS011;31429;42.674;23.350;2023-12-28T00:30:58;42.97;;;31.17;;
23163;SDS011;31429;42.674;23.350;2023-12-28T00:32:50;46.28;;;32.22;;
23163;SDS011;31429;42.674;23.350;2023-12-28T00:33:53;45.97;;;31.30;;
23163;SDS011;31429;42.674;23.350;2023-12-28T00:35:22;48.80;;;32.65;;
23163;SDS011;31429;42.674;23.350;2023-12-28T00:36:30;47.30;;;32.38;;
23163;SDS011;31429;42.674;23.350;2023-12-28T00:37:34;44.90;;;31.88;;
23163;SDS011;31429;42.674;23.350;2023-12-28T00:38:35;48.42;;;33.65;;
23163;SDS011;31429;42.674;23.350;2023-12-28T00:39:39;42.90;;;30.02;;
23163;SDS011;31429;42.674;23.350;2023-12-28T00:40:41;46.28;;;32.80;;
23163;SDS011;31429;42.674;23.350;2023-12-28T00:41:44;45.85;;;31.77;;
23163;SDS011;31429;42.674;23.350;2023-12-28T00:43:07;44.20;;;30.88;;
23163;SDS011;31429;42.674;23.350;2023-12-28T00:44:28;46.40;;;31.70;;
23163;SDS011;31429;42.674;23.350;2023-12-28T00:45:32;41.40;;;31.00;;
23163;SDS011;31429;42.674;23.350;2023-12-28T00:46:39;46.75;;;32.28;;
23163;SDS011;31429;42.674;23.350;2023-12-28T00:47:40;43.08;;;32.38;;
23163;SDS011;31429;42.674;23.350;2023-12-28T00:48:43;45.42;;;32.17;;
23163;SDS011;31429;42.674;23.350;2023-12-28T00:50:06;47.45;;;31.58;;
23163;SDS011;31429;42.674;23.350;2023-12-28T00:51:32;39.78;;;30.83;;
23163;SDS011;31429;42.674;23.350;2023-12-28T00:52:54;40.28;;;28.55;;
23163;SDS011;31429;42.674;23.350;2023-12-28T00:53:55;43.00;;;29.90;;
23163;SDS011;31429;42.674;23.350;2023-12-28T00:54:57;45.13;;;29.03;;
23163;SDS011;31429;42.674;23.350;2023-12-28T00:55:57;43.25;;;28.38;;
23163;SDS011;31429;42.674;23.350;2023-12-28T00:56:58;41.63;;;28.27;;
23163;SDS011;31429;42.674;23.350;2023-12-28T00:57:59;40.33;;;27.97;;
23163;SDS011;31429;42.674;23.350;2023-12-28T00:59:00;43.40;;;29.03;;
23163;SDS011;31429;42.674;23.350;2023-12-28T01:00:03;41.60;;;30.75;;
23163;SDS011;31429;42.674;23.350;2023-12-28T01:01:04;35.08;;;27.48;;
23163;SDS011;31429;42.674;23.350;2023-12-28T01:02:05;41.60;;;27.80;;
23163;SDS011;31429;42.674;23.350;2023-12-28T01:03:06;46.43;;;27.80;;
23163;SDS011;31429;42.674;23.350;2023-12-28T01:04:07;45.87;;;29.27;;
23163;SDS011;31429;42.674;23.350;2023-12-28T01:05:07;43.00;;;29.10;;
23163;SDS011;31429;42.674;23.350;2023-12-28T01:06:08;42.22;;;29.08;;
23163;SDS011;31429;42.674;23.350;2023-12-28T01:07:09;43.60;;;28.80;;
23163;SDS011;31429;42.674;23.350;2023-12-28T01:08:10;40.93;;;28.67;;
23163;SDS011;31429;42.674;23.350;2023-12-28T01:09:11;40.53;;;29.17;;
23163;SDS011;31429;42.674;23.350;2023-12-28T01:10:13;39.73;;;28.57;;
23163;SDS011;31429;42.674;23.350;2023-12-28T01:11:14;34.45;;;27.83;;
23163;SDS011;31429;42.674;23.350;2023-12-28T01:12:14;37.23;;;26.83;;
23163;SDS011;31429;42.674;23.350;2023-12-28T01:13:15;39.73;;;26.63;;
23163;SDS011;31429;42.674;23.350;2023-12-28T01:14:16;33.23;;;25.27;;
23163;SDS011;31429;42.674;23.350;2023-12-28T01:15:17;31.17;;;24.93;;
23163;SDS011;31429;42.674;23.350;2023-12-28T01:16:17;35.93;;;24.17;;
23163;SDS011;31429;42.674;23.350;2023-12-28T01:17:18;30.13;;;21.60;;
23163;SDS011;31429;42.674;23.350;2023-12-28T01:18:19;29.27;;;22.35;;
23163;SDS011;31429;42.674;23.350;2023-12-28T01:19:20;30.07;;;21.70;;
23163;SDS011;31429;42.674;23.350;2023-12-28T01:20:23;28.25;;;20.35;;
23163;SDS011;31429;42.674;23.350;2023-12-28T01:21:24;27.63;;;20.13;;
23163;SDS011;31429;42.674;23.350;2023-12-28T01:22:25;31.17;;;20.30;;
23163;SDS011;31429;42.674;23.350;2023-12-28T01:23:25;26.57;;;20.70;;
23163;SDS011;31429;42.674;23.350;2023-12-28T01:24:26;32.47;;;21.20;;
23163;SDS011;31429;42.674;23.350;2023-12-28T01:25:28;30.53;;;22.23;;
23163;SDS011;31429;42.674;23.350;2023-12-28T01:26:29;29.83;;;21.30;;
23163;SDS011;31429;42.674;23.350;2023-12-28T01:27:30;31.27;;;22.10;;
23163;SDS011;31429;42.674;23.350;2023-12-28T01:28:30;30.57;;;22.23;;
23163;SDS011;31429;42.674;23.350;2023-12-28T01:29:31;32.17;;;22.97;;
23163;SDS011;31429;42.674;23.350;2023-12-28T01:30:33;28.83;;;21.42;;
23163;SDS011;31429;42.674;23.350;2023-12-28T01:31:53;25.15;;;18.95;;
23163;SDS011;31429;42.674;23.350;2023-12-28T01:32:54;26.13;;;19.10;;
23163;SDS011;31429;42.674;23.350;2023-12-28T01:33:55;27.17;;;19.47;;
23163;SDS011;31429;42.674;23.350;2023-12-28T01:34:55;28.17;;;18.93;;
23163;SDS011;31429;42.674;23.350;2023-12-28T01:35:56;27.83;;;19.37;;
23163;SDS011;31429;42.674;23.350;2023-12-28T01:36:57;24.20;;;17.73;;
23163;SDS011;31429;42.674;23.350;2023-12-28T01:37:58;23.53;;;18.47;;
23163;SDS011;31429;42.674;23.350;2023-12-28T01:39:00;25.08;;;18.73;;
23163;SDS011;31429;42.674;23.350;2023-12-28T01:40:02;26.17;;;18.23;;
23163;SDS011;31429;42.674;23.350;2023-12-28T01:41:24;24.80;;;18.13;;
23163;SDS011;31429;42.674;23.350;2023-12-28T01:42:25;29.17;;;21.00;;
23163;SDS011;31429;42.674;23.350;2023-12-28T01:43:26;34.03;;;20.40;;
23163;SDS011;31429;42.674;23.350;2023-12-28T01:44:27;27.70;;;19.40;;
23163;SDS011;31429;42.674;23.350;2023-12-28T01:45:27;28.77;;;20.27;;
23163;SDS011;31429;42.674;23.350;2023-12-28T01:46:28;27.60;;;19.40;;
23163;SDS011;31429;42.674;23.350;2023-12-28T01:47:29;28.42;;;18.77;;
23163;SDS011;31429;42.674;23.350;2023-12-28T01:48:50;26.73;;;18.70;;
23163;SDS011;31429;42.674;23.350;2023-12-28T01:49:51;23.40;;;18.00;;
23163;SDS011;31429;42.674;23.350;2023-12-28T01:51:13;26.00;;;17.90;;
23163;SDS011;31429;42.674;23.350;2023-12-28T01:52:15;26.00;;;17.10;;
23163;SDS011;31429;42.674;23.350;2023-12-28T01:53:16;23.90;;;18.63;;
23163;SDS011;31429;42.674;23.350;2023-12-28T01:54:37;23.70;;;17.60;;
23163;SDS011;31429;42.674;23.350;2023-12-28T01:55:39;23.95;;;18.67;;
23163;SDS011;31429;42.674;23.350;2023-12-28T01:56:41;23.13;;;17.80;;
23163;SDS011;31429;42.674;23.350;2023-12-28T01:57:43;26.77;;;18.48;;
23163;SDS011;31429;42.674;23.350;2023-12-28T01:59:04;26.85;;;17.48;;
23163;SDS011;31429;42.674;23.350;2023-12-28T02:00:05;26.67;;;19.10;;
23163;SDS011;31429;42.674;23.350;2023-12-28T02:01:07;27.27;;;17.90;;
23163;SDS011;31429;42.674;23.350;2023-12-28T02:02:08;23.97;;;18.60;;
23163;SDS011;31429;42.674;23.350;2023-12-28T02:03:09;24.55;;;17.60;;
23163;SDS011;31429;42.674;23.350;2023-12-28T02:04:10;25.10;;;18.70;;
23163;SDS011;31429;42.674;23.350;2023-12-28T02:05:11;26.92;;;18.52;;
23163;SDS011;31429;42.674;23.350;2023-12-28T02:06:15;21.33;;;17.10;;
23163;SDS011;31429;42.674;23.350;2023-12-28T02:07:16;26.08;;;16.98;;
23163;SDS011;31429;42.674;23.350;2023-12-28T02:08:37;26.48;;;18.42;;
23163;SDS011;31429;42.674;23.350;2023-12-28T02:09:38;22.57;;;18.60;;
23163;SDS011;31429;42.674;23.350;2023-12-28T02:10:58;25.35;;;18.40;;
23163;SDS011;31429;42.674;23.350;2023-12-28T02:12:01;21.50;;;16.60;;
23163;SDS011;31429;42.674;23.350;2023-12-28T02:13:22;27.17;;;17.65;;
23163;SDS011;31429;42.674;23.350;2023-12-28T02:14:23;26.83;;;17.65;;
23163;SDS011;31429;42.674;23.350;2023-12-28T02:15:24;22.43;;;17.80;;
23163;SDS011;31429;42.674;23.350;2023-12-28T02:16:25;23.57;;;18.10;;
23163;SDS011;31429;42.674;23.350;2023-12-28T02:17:33;23.58;;;17.88;;
23163;SDS011;31429;42.674;23.350;2023-12-28T02:18:38;23.98;;;18.00;;
23163;SDS011;31429;42.674;23.350;2023-12-28T02:19:45;24.65;;;17.80;;
23163;SDS011;31429;42.674;23.350;2023-12-28T02:21:06;27.25;;;17.92;;
23163;SDS011;31429;42.674;23.350;2023-12-28T02:22:28;27.58;;;18.20;;
23163;SDS011;31429;42.674;23.350;2023-12-28T02:23:29;24.17;;;19.10;;
23163;SDS011;31429;42.674;23.350;2023-12-28T02:24:59;26.67;;;18.67;;
23163;SDS011;31429;42.674;23.350;2023-12-28T02:26:09;24.33;;;19.67;;
23163;SDS011;31429;42.674;23.350;2023-12-28T02:27:09;20.93;;;17.60;;
23163;SDS011;31429;42.674;23.350;2023-12-28T02:28:10;24.80;;;19.80;;
23163;SDS011;31429;42.674;23.350;2023-12-28T02:29:11;23.08;;;18.05;;
23163;SDS011;31429;42.674;23.350;2023-12-28T02:30:12;25.63;;;17.63;;
23163;SDS011;31429;42.674;23.350;2023-12-28T02:31:17;23.98;;;18.27;;
23163;SDS011;31429;42.674;23.350;2023-12-28T02:32:46;22.98;;;18.55;;
23163;SDS011;31429;42.674;23.350;2023-12-28T02:34:09;26.48;;;18.23;;
23163;SDS011;31429;42.674;23.350;2023-12-28T02:35:17;24.02;;;17.58;;
23163;SDS011;31429;42.674;23.350;2023-12-28T02:36:40;21.08;;;18.27;;
23163;SDS011;31429;42.674;23.350;2023-12-28T02:38:03;25.48;;;18.60;;
23163;SDS011;31429;42.674;23.350;2023-12-28T02:39:24;23.90;;;18.15;;
23163;SDS011;31429;42.674;23.350;2023-12-28T02:40:48;24.85;;;18.30;;
23163;SDS011;31429;42.674;23.350;2023-12-28T02:41:49;23.40;;;18.23;;
23163;SDS011;31429;42.674;23.350;2023-12-28T02:43:10;20.88;;;16.98;;
23163;SDS011;31429;42.674;23.350;2023-12-28T02:44:33;25.65;;;18.52;;
23163;SDS011;31429;42.674;23.350;2023-12-28T02:45:34;26.07;;;17.83;;
23163;SDS011;31429;42.674;23.350;2023-12-28T02:46:55;27.67;;;20.98;;
23163;SDS011;31429;42.674;23.350;2023-12-28T02:47:55;28.87;;;21.07;;
23163;SDS011;31429;42.674;23.350;2023-12-28T02:48:56;27.73;;;19.80;;
23163;SDS011;31429;42.674;23.350;2023-12-28T02:49:59;26.20;;;19.10;;
23163;SDS011;31429;42.674;23.350;2023-12-28T02:51:00;29.75;;;20.63;;
23163;SDS011;31429;42.674;23.350;2023-12-28T02:52:01;27.93;;;21.07;;
23163;SDS011;31429;42.674;23.350;2023-12-28T02:53:02;30.13;;;21.53;;
23163;SDS011;31429;42.674;23.350;2023-12-28T02:54:03;31.77;;;21.98;;
23163;SDS011;31429;42.674;23.350;2023-12-28T02:55:04;30.43;;;21.53;;
23163;SDS011;31429;42.674;23.350;2023-12-28T02:56:07;26.48;;;20.90;;
23163;SDS011;31429;42.674;23.350;2023-12-28T02:57:08;31.73;;;22.50;;
23163;SDS011;31429;42.674;23.350;2023-12-28T02:58:08;31.57;;;22.30;;
23163;SDS011;31429;42.674;23.350;2023-12-28T02:59:09;29.73;;;22.27;;
23163;SDS011;31429;42.674;23.350;2023-12-28T03:00:10;33.30;;;22.27;;
23163;SDS011;31429;42.674;23.350;2023-12-28T03:01:12;25.42;;;21.05;;
23163;SDS011;31429;42.674;23.350;2023-12-28T03:02:12;29.00;;;21.27;;
23163;SDS011;31429;42.674;23.350;2023-12-28T03:03:13;28.07;;;21.50;;
23163;SDS011;31429;42.674;23.350;2023-12-28T03:04:14;29.03;;;21.43;;
23163;SDS011;31429;42.674;23.350;2023-12-28T03:05:15;32.47;;;22.85;;
23163;SDS011;31429;42.674;23.350;2023-12-28T03:06:16;29.13;;;21.05;;
23163;SDS011;31429;42.674;23.350;2023-12-28T03:07:17;26.60;;;20.87;;
23163;SDS011;31429;42.674;23.350;2023-12-28T03:08:18;30.10;;;21.77;;
23163;SDS011;31429;42.674;23.350;2023-12-28T03:09:18;31.03;;;21.80;;
23163;SDS011;31429;42.674;23.350;2023-12-28T03:10:19;32.40;;;24.27;;
23163;SDS011;31429;42.674;23.350;2023-12-28T03:11:21;34.50;;;25.43;;
23163;SDS011;31429;42.674;23.350;2023-12-28T03:12:22;35.75;;;24.98;;
23163;SDS011;31429;42.674;23.350;2023-12-28T03:13:23;38.60;;;25.33;;
23163;SDS011;31429;42.674;23.350;2023-12-28T03:14:23;31.23;;;24.57;;
23163;SDS011;31429;42.674;23.350;2023-12-28T03:15:24;32.27;;;24.20;;
23163;SDS011;31429;42.674;23.350;2023-12-28T03:16:25;28.50;;;22.50;;
23163;SDS011;31429;42.674;23.350;2023-12-28T03:17:26;35.43;;;24.73;;
23163;SDS011;31429;42.674;23.350;2023-12-28T03:18:26;33.80;;;23.47;;
23163;SDS011;31429;42.674;23.350;2023-12-28T03:19:27;28.80;;;22.97;;
23163;SDS011;31429;42.674;23.350;2023-12-28T03:20:28;31.97;;;23.53;;
23163;SDS011;31429;42.674;23.350;2023-12-28T03:21:29;28.87;;;23.73;;
23163;SDS011;31429;42.674;23.350;2023-12-28T03:22:29;30.60;;;23.90;;
23163;SDS011;31429;42.674;23.350;2023-12-28T03:23:30;33.33;;;23.17;;
23163;SDS011;31429;42.674;23.350;2023-12-28T03:24:31;28.13;;;21.93;;
23163;SDS011;31429;42.674;23.350;2023-12-28T03:25:31;25.67;;;21.50;;
23163;SDS011;31429;42.674;23.350;2023-12-28T03:26:34;25.53;;;21.67;;
23163;SDS011;31429;42.674;23.350;2023-12-28T03:27:54;26.73;;;21.38;;
23163;SDS011;31429;42.674;23.350;2023-12-28T03:28:55;28.90;;;22.60;;
23163;SDS011;31429;42.674;23.350;2023-12-28T03:29:56;29.47;;;22.33;;
23163;SDS011;31429;42.674;23.350;2023-12-28T03:30:57;32.00;;;24.17;;
23163;SDS011;31429;42.674;23.350;2023-12-28T03:31:59;36.17;;;25.33;;
23163;SDS011;31429;42.674;23.350;2023-12-28T03:33:20;35.13;;;25.05;;
23163;SDS011;31429;42.674;23.350;2023-12-28T03:34:20;32.60;;;25.00;;
23163;SDS011;31429;42.674;23.350;2023-12-28T03:35:41;35.70;;;26.23;;
23163;SDS011;31429;42.674;23.350;2023-12-28T03:36:42;36.43;;;25.57;;
23163;SDS011;31429;42.674;23.350;2023-12-28T03:37:42;35.20;;;24.87;;
23163;SDS011;31429;42.674;23.350;2023-12-28T03:38:43;34.83;;;25.57;;
23163;SDS011;31429;42.674;23.350;2023-12-28T03:39:44;37.13;;;27.47;;
23163;SDS011;31429;42.674;23.350;2023-12-28T03:41:05;38.90;;;26.63;;
23163;SDS011;31429;42.674;23.350;2023-12-28T03:42:27;33.42;;;26.65;;
23163;SDS011;31429;42.674;23.350;2023-12-28T03:43:28;39.85;;;27.98;;
23163;SDS011;31429;42.674;23.350;2023-12-28T03:44:28;37.27;;;27.30;;
23163;SDS011;31429;42.674;23.350;2023-12-28T03:45:29;39.33;;;28.77;;
23163;SDS011;31429;42.674;23.350;2023-12-28T03:46:30;40.33;;;27.57;;
23163;SDS011;31429;42.674;23.350;2023-12-28T03:47:31;35.40;;;27.37;;
23163;SDS011;31429;42.674;23.350;2023-12-28T03:48:31;33.67;;;26.67;;
23163;SDS011;31429;42.674;23.350;2023-12-28T03:49:32;37.00;;;27.70;;
23163;SDS011;31429;42.674;23.350;2023-12-28T03:50:34;37.97;;;28.07;;
23163;SDS011;31429;42.674;23.350;2023-12-28T03:51:35;44.42;;;31.73;;
23163;SDS011;31429;42.674;23.350;2023-12-28T03:52:35;50.90;;;36.03;;
23163;SDS011;31429;42.674;23.350;2023-12-28T03:53:36;49.23;;;36.43;;
23163;SDS011;31429;42.674;23.350;2023-12-28T03:54:37;51.83;;;37.27;;
23163;SDS011;31429;42.674;23.350;2023-12-28T03:55:38;49.77;;;37.63;;
23163;SDS011;31429;42.674;23.350;2023-12-28T03:56:58;48.55;;;34.70;;
23163;SDS011;31429;42.674;23.350;2023-12-28T03:58:01;48.57;;;34.13;;
23163;SDS011;31429;42.674;23.350;2023-12-28T03:59:01;45.75;;;33.35;;
23163;SDS011;31429;42.674;23.350;2023-12-28T04:00:02;48.03;;;36.00;;
23163;SDS011;31429;42.674;23.350;2023-12-28T04:01:04;42.13;;;33.05;;
23163;SDS011;31429;42.674;23.350;2023-12-28T04:02:04;34.87;;;26.77;;
23163;SDS011;31429;42.674;23.350;2023-12-28T04:03:05;40.55;;;25.52;;
23163;SDS011;31429;42.674;23.350;2023-12-28T04:04:06;34.53;;;25.83;;
23163;SDS011;31429;42.674;23.350;2023-12-28T04:05:07;33.40;;;24.63;;
23163;SDS011;31429;42.674;23.350;2023-12-28T04:06:08;33.70;;;26.58;;
23163;SDS011;31429;42.674;23.350;2023-12-28T04:07:09;30.87;;;24.50;;
23163;SDS011;31429;42.674;23.350;2023-12-28T04:08:10;34.95;;;25.38;;
23163;SDS011;31429;42.674;23.350;2023-12-28T04:09:11;32.37;;;24.97;;
23163;SDS011;31429;42.674;23.350;2023-12-28T04:10:12;34.60;;;25.20;;
23163;SDS011;31429;42.674;23.350;2023-12-28T04:11:13;35.75;;;25.35;;
23163;SDS011;31429;42.674;23.350;2023-12-28T04:12:13;32.70;;;26.47;;
23163;SDS011;31429;42.674;23.350;2023-12-28T04:13:15;33.10;;;25.60;;
23163;SDS011;31429;42.674;23.350;2023-12-28T04:14:16;29.02;;;22.98;;
23163;SDS011;31429;42.674;23.350;2023-12-28T04:15:17;30.63;;;22.83;;
23163;SDS011;31429;42.674;23.350;2023-12-28T04:16:18;29.80;;;21.83;;
23163;SDS011;31429;42.674;23.350;2023-12-28T04:17:18;26.70;;;20.93;;
23163;SDS011;31429;42.674;23.350;2023-12-28T04:18:19;27.60;;;20.70;;
23163;SDS011;31429;42.674;23.350;2023-12-28T04:19:20;29.03;;;21.67;;
23163;SDS011;31429;42.674;23.350;2023-12-28T04:20:21;28.13;;;21.73;;
23163;SDS011;31429;42.674;23.350;2023-12-28T04:21:21;28.20;;;21.23;;
23163;SDS011;31429;42.674;23.350;2023-12-28T04:22:22;28.90;;;21.73;;
23163;SDS011;31429;42.674;23.350;2023-12-28T04:23:23;30.67;;;21.83;;
23163;SDS011;31429;42.674;23.350;2023-12-28T04:24:24;34.77;;;23.10;;
23163;SDS011;31429;42.674;23.350;2023-12-28T04:25:24;30.43;;;22.17;;
23163;SDS011;31429;42.674;23.350;2023-12-28T04:26:25;31.23;;;23.03;;
23163;SDS011;31429;42.674;23.350;2023-12-28T04:27:26;30.50;;;23.30;;
23163;SDS011;31429;42.674;23.350;2023-12-28T04:28:28;30.30;;;23.50;;
23163;SDS011;31429;42.674;23.350;2023-12-28T04:29:29;28.48;;;22.20;;
23163;SDS011;31429;42.674;23.350;2023-12-28T04:30:29;32.10;;;24.53;;
23163;SDS011;31429;42.674;23.350;2023-12-28T04:31:30;29.10;;;23.03;;
23163;SDS011;31429;42.674;23.350;2023-12-28T04:32:31;28.20;;;22.03;;
23163;SDS011;31429;42.674;23.350;2023-12-28T04:33:32;27.52;;;23.00;;
23163;SDS011;31429;42.674;23.350;2023-12-28T04:34:35;30.67;;;23.58;;
23163;SDS011;31429;42.674;23.350;2023-12-28T04:35:36;33.85;;;25.30;;
23163;SDS011;31429;42.674;23.350;2023-12-28T04:36:39;32.93;;;26.20;;
23163;SDS011;31429;42.674;23.350;2023-12-28T04:38:00;30.45;;;24.35;;
23163;SDS011;31429;42.674;23.350;2023-12-28T04:39:01;33.40;;;25.83;;
23163;SDS011;31429;42.674;23.350;2023-12-28T04:40:22;36.78;;;27.48;;
23163;SDS011;31429;42.674;23.350;2023-12-28T04:41:23;37.30;;;27.43;;
23163;SDS011;31429;42.674;23.350;2023-12-28T04:42:23;38.80;;;28.93;;
23163;SDS011;31429;42.674;23.350;2023-12-28T04:43:24;39.37;;;28.20;;
23163;SDS011;31429;42.674;23.350;2023-12-28T04:44:26;37.93;;;27.83;;
23163;SDS011;31429;42.674;23.350;2023-12-28T04:45:27;37.25;;;28.83;;
23163;SDS011;31429;42.674;23.350;2023-12-28T04:46:28;41.10;;;28.50;;
23163;SDS011;31429;42.674;23.350;2023-12-28T04:47:28;37.43;;;28.30;;
23163;SDS011;31429;42.674;23.350;2023-12-28T04:48:29;40.60;;;30.13;;
23163;SDS011;31429;42.674;23.350;2023-12-28T04:49:30;39.95;;;29.08;;
23163;SDS011;31429;42.674;23.350;2023-12-28T04:50:31;38.03;;;30.07;;
23163;SDS011;31429;42.674;23.350;2023-12-28T04:51:32;38.60;;;28.47;;
23163;SDS011;31429;42.674;23.350;2023-12-28T04:52:33;39.70;;;30.10;;
23163;SDS011;31429;42.674;23.350;2023-12-28T04:53:33;37.13;;;29.05;;
23163;SDS011;31429;42.674;23.350;2023-12-28T04:54:54;36.85;;;27.40;;
23163;SDS011;31429;42.674;23.350;2023-12-28T04:55:55;41.10;;;28.63;;
23163;SDS011;31429;42.674;23.350;2023-12-28T04:56:56;39.03;;;28.33;;
23163;SDS011;31429;42.674;23.350;2023-12-28T04:57:57;38.97;;;28.60;;
23163;SDS011;31429;42.674;23.350;2023-12-28T04:58:57;39.37;;;30.40;;
23163;SDS011;31429;42.674;23.350;2023-12-28T04:59:59;41.40;;;30.47;;
23163;SDS011;31429;42.674;23.350;2023-12-28T05:01:01;37.13;;;29.67;;
23163;SDS011;31429;42.674;23.350;2023-12-28T05:02:02;38.63;;;28.83;;
23163;SDS011;31429;42.674;23.350;2023-12-28T05:03:03;41.72;;;30.73;;
23163;SDS011;31429;42.674;23.350;2023-12-28T05:04:04;37.97;;;29.58;;
23163;SDS011;31429;42.674;23.350;2023-12-28T05:05:05;37.23;;;28.50;;
23163;SDS011;31429;42.674;23.350;2023-12-28T05:06:06;40.58;;;29.25;;
23163;SDS011;31429;42.674;23.350;2023-12-28T05:07:07;36.13;;;29.47;;
23163;SDS011;31429;42.674;23.350;2023-12-28T05:08:08;38.23;;;29.30;;
23163;SDS011;31429;42.674;23.350;2023-12-28T05:09:09;38.17;;;29.90;;
23163;SDS011;31429;42.674;23.350;2023-12-28T05:10:09;41.83;;;29.20;;
23163;SDS011;31429;42.674;23.350;2023-12-28T05:11:10;34.57;;;27.37;;
23163;SDS011;31429;42.674;23.350;2023-12-28T05:12:11;41.10;;;28.77;;
23163;SDS011;31429;42.674;23.350;2023-12-28T05:13:12;39.00;;;29.07;;
23163;SDS011;31429;42.674;23.350;2023-12-28T05:14:13;39.93;;;29.77;;
23163;SDS011;31429;42.674;23.350;2023-12-28T05:15:15;41.60;;;30.80;;
23163;SDS011;31429;42.674;23.350;2023-12-28T05:16:17;39.53;;;30.15;;
23163;SDS011;31429;42.674;23.350;2023-12-28T05:17:17;45.47;;;33.70;;
23163;SDS011;31429;42.674;23.350;2023-12-28T05:18:18;40.13;;;30.63;;
23163;SDS011;31429;42.674;23.350;2023-12-28T05:19:19;39.70;;;30.50;;
23163;SDS011;31429;42.674;23.350;2023-12-28T05:20:20;40.20;;;30.63;;
23163;SDS011;31429;42.674;23.350;2023-12-28T05:21:21;39.30;;;29.20;;
23163;SDS011;31429;42.674;23.350;2023-12-28T05:22:21;36.67;;;29.57;;
23163;SDS011;31429;42.674;23.350;2023-12-28T05:23:22;37.50;;;29.93;;
23163;SDS011;31429;42.674;23.350;2023-12-28T05:24:23;36.50;;;26.87;;
23163;SDS011;31429;42.674;23.350;2023-12-28T05:25:24;38.33;;;27.50;;
23163;SDS011;31429;42.674;23.350;2023-12-28T05:26:24;35.13;;;26.87;;
23163;SDS011;31429;42.674;23.350;2023-12-28T05:27:26;36.83;;;27.17;;
23163;SDS011;31429;42.674;23.350;2023-12-28T05:28:27;33.67;;;27.63;;
23163;SDS011;31429;42.674;23.350;2023-12-28T05:29:27;37.03;;;28.40;;
23163;SDS011;31429;42.674;23.350;2023-12-28T05:30:30;37.93;;;29.20;;
23163;SDS011;31429;42.674;23.350;2023-12-28T05:31:30;37.15;;;29.13;;
23163;SDS011;31429;42.674;23.350;2023-12-28T05:32:31;36.10;;;29.13;;
23163;SDS011;31429;42.674;23.350;2023-12-28T05:33:32;39.07;;;28.10;;
23163;SDS011;31429;42.674;23.350;2023-12-28T05:34:33;34.43;;;26.90;;
23163;SDS011;31429;42.674;23.350;2023-12-28T05:35:33;32.73;;;25.27;;
23163;SDS011;31429;42.674;23.350;2023-12-28T05:36:34;40.97;;;29.63;;
23163;SDS011;31429;42.674;23.350;2023-12-28T05:37:35;38.00;;;26.43;;
23163;SDS011;31429;42.674;23.350;2023-12-28T05:38:35;35.07;;;24.77;;
23163;SDS011;31429;42.674;23.350;2023-12-28T05:39:36;33.27;;;26.57;;
23163;SDS011;31429;42.674;23.350;2023-12-28T05:40:37;38.17;;;29.10;;
23163;SDS011;31429;42.674;23.350;2023-12-28T05:41:38;38.07;;;28.90;;
23163;SDS011;31429;42.674;23.350;2023-12-28T05:42:38;44.53;;;31.40;;
23163;SDS011;31429;42.674;23.350;2023-12-28T05:43:39;41.53;;;32.67;;
23163;SDS011;31429;42.674;23.350;2023-12-28T05:44:40;44.33;;;32.83;;
23163;SDS011;31429;42.674;23.350;2023-12-28T05:45:42;47.97;;;36.10;;
23163;SDS011;31429;42.674;23.350;2023-12-28T05:46:43;51.10;;;37.47;;
23163;SDS011;31429;42.674;23.350;2023-12-28T05:47:44;42.77;;;31.83;;
23163;SDS011;31429;42.674;23.350;2023-12-28T05:48:44;44.43;;;32.67;;
23163;SDS011;31429;42.674;23.350;2023-12-28T05:49:45;42.27;;;30.77;;
23163;SDS011;31429;42.674;23.350;2023-12-28T05:50:46;43.47;;;33.63;;
23163;SDS011;31429;42.674;23.350;2023-12-28T05:51:47;46.83;;;34.97;;
23163;SDS011;31429;42.674;23.350;2023-12-28T05:52:48;50.17;;;37.33;;
23163;SDS011;31429;42.674;23.350;2023-12-28T05:53:48;56.23;;;43.23;;
23163;SDS011;31429;42.674;23.350;2023-12-28T05:54:49;60.50;;;46.17;;
23163;SDS011;31429;42.674;23.350;2023-12-28T05:55:50;60.73;;;43.80;;
23163;SDS011;31429;42.674;23.350;2023-12-28T05:56:51;62.87;;;44.70;;
23163;SDS011;31429;42.674;23.350;2023-12-28T05:57:51;55.40;;;39.60;;
23163;SDS011;31429;42.674;23.350;2023-12-28T05:58:52;50.80;;;36.57;;
23163;SDS011;31429;42.674;23.350;2023-12-28T05:59:53;58.07;;;41.03;;
23163;SDS011;31429;42.674;23.350;2023-12-28T06:00:55;53.47;;;40.37;;
23163;SDS011;31429;42.674;23.350;2023-12-28T06:01:56;52.85;;;39.60;;
23163;SDS011;31429;42.674;23.350;2023-12-28T06:02:56;50.33;;;36.47;;
23163;SDS011;31429;42.674;23.350;2023-12-28T06:03:57;49.03;;;38.17;;
23163;SDS011;31429;42.674;23.350;2023-12-28T06:04:58;55.97;;;40.97;;
23163;SDS011;31429;42.674;23.350;2023-12-28T06:05:59;59.90;;;44.77;;
23163;SDS011;31429;42.674;23.350;2023-12-28T06:07:00;63.87;;;48.13;;
23163;SDS011;31429;42.674;23.350;2023-12-28T06:08:21;68.22;;;50.55;;
23163;SDS011;31429;42.674;23.350;2023-12-28T06:09:22;66.47;;;47.50;;
23163;SDS011;31429;42.674;23.350;2023-12-28T06:10:23;69.25;;;48.22;;
23163;SDS011;31429;42.674;23.350;2023-12-28T06:11:27;70.55;;;51.55;;